sensor_id;sensor_type;location;lat;lon;timestamp;temperature;humidity
41882;DHT22;27562;47.524;12.404;2023-11-21T00:01:17;5.80;99.90
41882;DHT22;27562;47.524;12.404;2023-11-21T00:03:43;5.80;99.90
41882;DHT22;27562;47.524;12.404;2023-11-21T00:06:09;5.90;99.90
41882;DHT22;27562;47.524;12.404;2023-11-21T00:08:35;5.90;99.90
41882;DHT22;27562;47.524;12.404;2023-11-21T00:11:01;5.90;99.90
41882;DHT22;27562;47.524;12.404;2023-11-21T00:13:28;6.00;99.90
41882;DHT22;27562;47.524;12.404;2023-11-21T00:15:53;5.90;99.90
41882;DHT22;27562;47.524;12.404;2023-11-21T00:18:20;5.90;99.90
41882;DHT22;27562;47.524;12.404;2023-11-21T00:20:46;6.00;99.90
41882;DHT22;27562;47.524;12.404;2023-11-21T00:23:11;6.00;99.90
41882;DHT22;27562;47.524;12.404;2023-11-21T00:25:37;6.00;99.90
41882;DHT22;27562;47.524;12.404;2023-11-21T00:28:03;5.90;99.90
41882;DHT22;27562;47.524;12.404;2023-11-21T00:30:29;5.90;99.90
41882;DHT22;27562;47.524;12.404;2023-11-21T00:32:55;5.90;99.90
41882;DHT22;27562;47.524;12.404;2023-11-21T00:35:20;5.80;99.90
41882;DHT22;27562;47.524;12.404;2023-11-21T00:37:46;5.80;99.90
41882;DHT22;27562;47.524;12.404;2023-11-21T00:40:12;5.90;99.90
41882;DHT22;27562;47.524;12.404;2023-11-21T00:42:38;5.80;99.90
41882;DHT22;27562;47.524;12.404;2023-11-21T00:45:05;5.90;99.90
41882;DHT22;27562;47.524;12.404;2023-11-21T00:47:31;5.80;99.90
41882;DHT22;27562;47.524;12.404;2023-11-21T00:49:57;5.90;99.90
41882;DHT22;27562;47.524;12.404;2023-11-21T00:52:22;5.90;99.90
41882;DHT22;27562;47.524;12.404;2023-11-21T00:54:48;5.90;99.90
41882;DHT22;27562;47.524;12.404;2023-11-21T00:57:15;5.80;99.90
41882;DHT22;27562;47.524;12.404;2023-11-21T00:59:40;5.80;99.90
41882;DHT22;27562;47.524;12.404;2023-11-21T01:02:06;5.80;99.90
41882;DHT22;27562;47.524;12.404;2023-11-21T01:04:35;5.80;99.90
41882;DHT22;27562;47.524;12.404;2023-11-21T01:07:01;5.80;99.90
41882;DHT22;27562;47.524;12.404;2023-11-21T01:09:26;5.80;99.90
41882;DHT22;27562;47.524;12.404;2023-11-21T01:11:53;5.80;99.90
41882;DHT22;27562;47.524;12.404;2023-11-21T01:14:19;5.90;99.90
41882;DHT22;27562;47.524;12.404;2023-11-21T01:16:44;5.90;99.90
41882;DHT22;27562;47.524;12.404;2023-11-21T01:19:11;5.90;99.90
41882;DHT22;27562;47.524;12.404;2023-11-21T01:21:36;5.90;99.90
41882;DHT22;27562;47.524;12.404;2023-11-21T01:24:02;5.90;99.90
41882;DHT22;27562;47.524;12.404;2023-11-21T01:26:28;5.90;99.90
41882;DHT22;27562;47.524;12.404;2023-11-21T01:28:54;5.80;99.90
41882;DHT22;27562;47.524;12.404;2023-11-21T01:31:20;5.80;99.90
41882;DHT22;27562;47.524;12.404;2023-11-21T01:33:46;5.90;99.90
41882;DHT22;27562;47.524;12.404;2023-11-21T01:36:12;5.90;99.90
41882;DHT22;27562;47.524;12.404;2023-11-21T01:38:37;5.90;99.90
41882;DHT22;27562;47.524;12.404;2023-11-21T01:41:03;5.90;99.90
41882;DHT22;27562;47.524;12.404;2023-11-21T01:43:30;5.90;99.90
41882;DHT22;27562;47.524;12.404;2023-11-21T01:45:57;5.80;99.90
41882;DHT22;27562;47.524;12.404;2023-11-21T01:48:26;5.80;99.90
41882;DHT22;27562;47.524;12.404;2023-11-21T01:50:53;5.70;99.90
41882;DHT22;27562;47.524;12.404;2023-11-21T01:53:18;5.70;99.90
41882;DHT22;27562;47.524;12.404;2023-11-21T01:55:45;5.60;99.90
41882;DHT22;27562;47.524;12.404;2023-11-21T01:58:11;5.60;99.90
41882;DHT22;27562;47.524;12.404;2023-11-21T02:00:40;5.60;99.90
41882;DHT22;27562;47.524;12.404;2023-11-21T02:03:05;5.60;99.90
41882;DHT22;27562;47.524;12.404;2023-11-21T02:05:32;5.60;99.90
41882;DHT22;27562;47.524;12.404;2023-11-21T02:07:58;5.70;99.90
41882;DHT22;27562;47.524;12.404;2023-11-21T02:10:24;5.70;99.90
41882;DHT22;27562;47.524;12.404;2023-11-21T02:12:50;5.60;99.90
41882;DHT22;27562;47.524;12.404;2023-11-21T02:15:16;5.60;99.90
41882;DHT22;27562;47.524;12.404;2023-11-21T02:17:46;5.60;99.90
41882;DHT22;27562;47.524;12.404;2023-11-21T02:20:17;5.60;99.90
41882;DHT22;27562;47.524;12.404;2023-11-21T02:22:56;5.50;99.90
41882;DHT22;27562;47.524;12.404;2023-11-21T02:25:25;5.50;99.90
41882;DHT22;27562;47.524;12.404;2023-11-21T02:27:56;5.50;99.90
41882;DHT22;27562;47.524;12.404;2023-11-21T02:30:22;5.60;99.90
41882;DHT22;27562;47.524;12.404;2023-11-21T02:32:51;5.50;99.90
41882;DHT22;27562;47.524;12.404;2023-11-21T02:35:20;5.60;99.90
41882;DHT22;27562;47.524;12.404;2023-11-21T02:37:49;5.60;99.90
41882;DHT22;27562;47.524;12.404;2023-11-21T02:40:15;5.60;99.90
41882;DHT22;27562;47.524;12.404;2023-11-21T02:42:46;5.60;99.90
41882;DHT22;27562;47.524;12.404;2023-11-21T02:45:14;5.50;99.90
41882;DHT22;27562;47.524;12.404;2023-11-21T02:47:42;5.50;99.90
41882;DHT22;27562;47.524;12.404;2023-11-21T02:50:08;5.50;99.90
41882;DHT22;27562;47.524;12.404;2023-11-21T02:52:35;5.60;99.90
41882;DHT22;27562;47.524;12.404;2023-11-21T02:55:04;5.50;99.90
41882;DHT22;27562;47.524;12.404;2023-11-21T02:57:30;5.50;99.90
41882;DHT22;27562;47.524;12.404;2023-11-21T02:59:55;5.50;99.90
41882;DHT22;27562;47.524;12.404;2023-11-21T03:02:21;5.50;99.90
41882;DHT22;27562;47.524;12.404;2023-11-21T03:04:48;5.50;99.90
41882;DHT22;27562;47.524;12.404;2023-11-21T03:07:15;5.50;99.90
41882;DHT22;27562;47.524;12.404;2023-11-21T03:09:40;5.50;99.90
41882;DHT22;27562;47.524;12.404;2023-11-21T03:12:07;5.50;99.90
41882;DHT22;27562;47.524;12.404;2023-11-21T03:14:34;5.50;99.90
41882;DHT22;27562;47.524;12.404;2023-11-21T03:17:00;5.50;99.90
41882;DHT22;27562;47.524;12.404;2023-11-21T03:19:25;5.50;99.90
41882;DHT22;27562;47.524;12.404;2023-11-21T03:21:51;5.50;99.90
41882;DHT22;27562;47.524;12.404;2023-11-21T03:24:18;5.50;99.90
41882;DHT22;27562;47.524;12.404;2023-11-21T03:26:45;5.50;99.90
41882;DHT22;27562;47.524;12.404;2023-11-21T03:29:12;5.50;99.90
41882;DHT22;27562;47.524;12.404;2023-11-21T03:31:38;5.50;99.90
41882;DHT22;27562;47.524;12.404;2023-11-21T03:34:03;5.50;99.90
41882;DHT22;27562;47.524;12.404;2023-11-21T03:36:29;5.50;99.90
41882;DHT22;27562;47.524;12.404;2023-11-21T03:38:54;5.40;99.90
41882;DHT22;27562;47.524;12.404;2023-11-21T03:41:21;5.40;99.90
41882;DHT22;27562;47.524;12.404;2023-11-21T03:43:46;5.40;99.90
41882;DHT22;27562;47.524;12.404;2023-11-21T03:46:12;5.30;99.90
41882;DHT22;27562;47.524;12.404;2023-11-21T03:48:38;5.30;99.90
41882;DHT22;27562;47.524;12.404;2023-11-21T03:51:04;5.30;99.90
41882;DHT22;27562;47.524;12.404;2023-11-21T03:53:30;5.30;99.90
41882;DHT22;27562;47.524;12.404;2023-11-21T03:55:55;5.30;99.90
41882;DHT22;27562;47.524;12.404;2023-11-21T03:58:21;5.30;99.90
41882;DHT22;27562;47.524;12.404;2023-11-21T04:00:47;5.30;99.90
41882;DHT22;27562;47.524;12.404;2023-11-21T04:03:16;5.30;99.90
41882;DHT22;27562;47.524;12.404;2023-11-21T04:05:42;5.30;99.90
41882;DHT22;27562;47.524;12.404;2023-11-21T04:08:07;5.20;99.90
41882;DHT22;27562;47.524;12.404;2023-11-21T04:10:33;5.20;99.90
41882;DHT22;27562;47.524;12.404;2023-11-21T04:12:59;5.20;99.90
41882;DHT22;27562;47.524;12.404;2023-11-21T04:15:25;5.10;99.90
41882;DHT22;27562;47.524;12.404;2023-11-21T04:17:51;5.10;99.90
41882;DHT22;27562;47.524;12.404;2023-11-21T04:20:17;5.10;99.90
41882;DHT22;27562;47.524;12.404;2023-11-21T04:22:44;5.10;99.90
41882;DHT22;27562;47.524;12.404;2023-11-21T04:25:15;5.10;99.90
41882;DHT22;27562;47.524;12.404;2023-11-21T04:27:41;5.10;99.90
41882;DHT22;27562;47.524;12.404;2023-11-21T04:30:10;5.10;99.90
41882;DHT22;27562;47.524;12.404;2023-11-21T04:32:35;5.20;99.90
41882;DHT22;27562;47.524;12.404;2023-11-21T04:35:01;5.10;99.90
41882;DHT22;27562;47.524;12.404;2023-11-21T04:37:27;5.20;99.90
41882;DHT22;27562;47.524;12.404;2023-11-21T04:39:53;5.20;99.90
41882;DHT22;27562;47.524;12.404;2023-11-21T04:42:18;5.20;99.90
41882;DHT22;27562;47.524;12.404;2023-11-21T04:44:44;5.20;99.90
41882;DHT22;27562;47.524;12.404;2023-11-21T04:47:10;5.20;99.90
41882;DHT22;27562;47.524;12.404;2023-11-21T04:49:36;5.20;99.90
41882;DHT22;27562;47.524;12.404;2023-11-21T04:52:01;5.30;99.90
41882;DHT22;27562;47.524;12.404;2023-11-21T04:54:30;5.30;99.90
41882;DHT22;27562;47.524;12.404;2023-11-21T04:56:56;5.30;99.90
41882;DHT22;27562;47.524;12.404;2023-11-21T04:59:22;5.20;99.90
41882;DHT22;27562;47.524;12.404;2023-11-21T05:01:50;5.30;99.90
41882;DHT22;27562;47.524;12.404;2023-11-21T05:04:16;5.30;99.90
41882;DHT22;27562;47.524;12.404;2023-11-21T05:06:41;5.30;99.90
41882;DHT22;27562;47.524;12.404;2023-11-21T05:09:07;5.30;99.90
41882;DHT22;27562;47.524;12.404;2023-11-21T05:11:37;5.30;99.90
41882;DHT22;27562;47.524;12.404;2023-11-21T05:14:03;5.30;99.90
41882;DHT22;27562;47.524;12.404;2023-11-21T05:16:30;5.30;99.90
41882;DHT22;27562;47.524;12.404;2023-11-21T05:18:56;5.40;99.90
41882;DHT22;27562;47.524;12.404;2023-11-21T05:21:26;5.40;99.90
41882;DHT22;27562;47.524;12.404;2023-11-21T05:23:52;5.40;99.90
41882;DHT22;27562;47.524;12.404;2023-11-21T05:26:17;5.40;99.90
41882;DHT22;27562;47.524;12.404;2023-11-21T05:28:43;5.40;99.90
41882;DHT22;27562;47.524;12.404;2023-11-21T05:31:09;5.40;99.90
41882;DHT22;27562;47.524;12.404;2023-11-21T05:33:36;5.40;99.90
41882;DHT22;27562;47.524;12.404;2023-11-21T05:36:02;5.40;99.90
41882;DHT22;27562;47.524;12.404;2023-11-21T05:38:27;5.40;99.90
41882;DHT22;27562;47.524;12.404;2023-11-21T05:40:53;5.40;99.90
41882;DHT22;27562;47.524;12.404;2023-11-21T05:43:19;5.40;99.90
41882;DHT22;27562;47.524;12.404;2023-11-21T05:45:45;5.40;99.90
41882;DHT22;27562;47.524;12.404;2023-11-21T05:48:11;5.40;99.90
41882;DHT22;27562;47.524;12.404;2023-11-21T05:50:37;5.30;99.90
41882;DHT22;27562;47.524;12.404;2023-11-21T05:53:03;5.20;99.90
41882;DHT22;27562;47.524;12.404;2023-11-21T05:55:29;5.20;99.90
41882;DHT22;27562;47.524;12.404;2023-11-21T05:57:55;5.20;99.90
41882;DHT22;27562;47.524;12.404;2023-11-21T06:00:21;5.20;99.90
41882;DHT22;27562;47.524;12.404;2023-11-21T06:02:53;5.20;99.90
41882;DHT22;27562;47.524;12.404;2023-11-21T06:05:23;5.20;99.90
41882;DHT22;27562;47.524;12.404;2023-11-21T06:07:50;5.20;99.90
41882;DHT22;27562;47.524;12.404;2023-11-21T06:10:17;5.10;99.90
41882;DHT22;27562;47.524;12.404;2023-11-21T06:12:44;5.10;99.90
41882;DHT22;27562;47.524;12.404;2023-11-21T06:15:11;5.10;99.90
41882;DHT22;27562;47.524;12.404;2023-11-21T06:17:39;5.10;99.90
41882;DHT22;27562;47.524;12.404;2023-11-21T06:20:07;5.10;99.90
41882;DHT22;27562;47.524;12.404;2023-11-21T06:22:40;5.00;99.90
41882;DHT22;27562;47.524;12.404;2023-11-21T06:25:07;5.10;99.90
41882;DHT22;27562;47.524;12.404;2023-11-21T06:27:38;5.10;99.90
41882;DHT22;27562;47.524;12.404;2023-11-21T06:30:05;5.00;99.90
41882;DHT22;27562;47.524;12.404;2023-11-21T06:32:32;5.10;99.90
41882;DHT22;27562;47.524;12.404;2023-11-21T06:34:58;5.00;99.90
41882;DHT22;27562;47.524;12.404;2023-11-21T06:37:27;5.00;99.90
41882;DHT22;27562;47.524;12.404;2023-11-21T06:39:53;5.00;99.90
41882;DHT22;27562;47.524;12.404;2023-11-21T06:42:19;5.10;99.90
41882;DHT22;27562;47.524;12.404;2023-11-21T06:44:46;5.00;99.90
41882;DHT22;27562;47.524;12.404;2023-11-21T06:47:12;5.10;99.90
41882;DHT22;27562;47.524;12.404;2023-11-21T06:49:38;5.10;99.90
41882;DHT22;27562;47.524;12.404;2023-11-21T06:52:04;5.10;99.90
41882;DHT22;27562;47.524;12.404;2023-11-21T06:54:31;5.10;99.90
41882;DHT22;27562;47.524;12.404;2023-11-21T06:56:57;5.10;99.90
41882;DHT22;27562;47.524;12.404;2023-11-21T06:59:23;5.20;99.90
41882;DHT22;27562;47.524;12.404;2023-11-21T07:01:50;5.20;99.90
41882;DHT22;27562;47.524;12.404;2023-11-21T07:04:16;5.30;99.90
41882;DHT22;27562;47.524;12.404;2023-11-21T07:06:41;5.30;99.90
41882;DHT22;27562;47.524;12.404;2023-11-21T07:09:09;5.30;99.90
41882;DHT22;27562;47.524;12.404;2023-11-21T07:11:35;5.30;99.90
41882;DHT22;27562;47.524;12.404;2023-11-21T07:14:00;5.30;99.90
41882;DHT22;27562;47.524;12.404;2023-11-21T07:16:35;5.30;99.90
41882;DHT22;27562;47.524;12.404;2023-11-21T07:19:06;5.30;99.90
41882;DHT22;27562;47.524;12.404;2023-11-21T07:21:35;5.30;99.90
41882;DHT22;27562;47.524;12.404;2023-11-21T07:24:02;5.30;99.90
41882;DHT22;27562;47.524;12.404;2023-11-21T07:26:28;5.30;99.90
41882;DHT22;27562;47.524;12.404;2023-11-21T07:28:54;5.30;99.90
41882;DHT22;27562;47.524;12.404;2023-11-21T07:31:20;5.30;99.90
41882;DHT22;27562;47.524;12.404;2023-11-21T07:33:46;5.30;99.90
41882;DHT22;27562;47.524;12.404;2023-11-21T07:36:16;5.30;99.90
41882;DHT22;27562;47.524;12.404;2023-11-21T07:38:44;5.30;99.90
41882;DHT22;27562;47.524;12.404;2023-11-21T07:41:10;5.30;99.90
41882;DHT22;27562;47.524;12.404;2023-11-21T07:43:36;5.30;99.90
41882;DHT22;27562;47.524;12.404;2023-11-21T07:46:02;5.40;99.90
41882;DHT22;27562;47.524;12.404;2023-11-21T07:48:32;5.40;99.90
41882;DHT22;27562;47.524;12.404;2023-11-21T07:50:58;5.40;99.90
41882;DHT22;27562;47.524;12.404;2023-11-21T07:53:25;5.40;99.90
41882;DHT22;27562;47.524;12.404;2023-11-21T07:55:51;5.50;99.90
41882;DHT22;27562;47.524;12.404;2023-11-21T07:58:17;5.50;99.90
41882;DHT22;27562;47.524;12.404;2023-11-21T08:00:43;5.50;99.90
41882;DHT22;27562;47.524;12.404;2023-11-21T08:03:09;5.50;99.90
41882;DHT22;27562;47.524;12.404;2023-11-21T08:05:36;5.60;99.90
41882;DHT22;27562;47.524;12.404;2023-11-21T08:08:02;5.60;99.90
41882;DHT22;27562;47.524;12.404;2023-11-21T08:10:28;5.60;99.90
41882;DHT22;27562;47.524;12.404;2023-11-21T08:12:53;5.60;99.90
41882;DHT22;27562;47.524;12.404;2023-11-21T08:15:19;5.60;99.90
41882;DHT22;27562;47.524;12.404;2023-11-21T08:17:46;5.70;99.90
41882;DHT22;27562;47.524;12.404;2023-11-21T08:20:12;5.70;99.90
41882;DHT22;27562;47.524;12.404;2023-11-21T08:22:37;5.80;99.90
41882;DHT22;27562;47.524;12.404;2023-11-21T08:25:06;5.80;99.90
41882;DHT22;27562;47.524;12.404;2023-11-21T08:27:33;5.80;99.90
41882;DHT22;27562;47.524;12.404;2023-11-21T08:30:00;5.80;99.90
41882;DHT22;27562;47.524;12.404;2023-11-21T08:32:26;5.80;99.90
41882;DHT22;27562;47.524;12.404;2023-11-21T08:34:52;5.80;99.90
41882;DHT22;27562;47.524;12.404;2023-11-21T08:37:17;5.80;99.90
41882;DHT22;27562;47.524;12.404;2023-11-21T08:39:47;5.80;99.90
41882;DHT22;27562;47.524;12.404;2023-11-21T08:42:14;5.80;99.90
41882;DHT22;27562;47.524;12.404;2023-11-21T08:44:40;5.80;99.90
41882;DHT22;27562;47.524;12.404;2023-11-21T08:47:06;5.80;99.90
41882;DHT22;27562;47.524;12.404;2023-11-21T08:49:31;5.80;99.90
41882;DHT22;27562;47.524;12.404;2023-11-21T08:51:58;5.80;99.90
41882;DHT22;27562;47.524;12.404;2023-11-21T08:54:25;5.80;99.90
41882;DHT22;27562;47.524;12.404;2023-11-21T08:56:54;5.80;99.90
41882;DHT22;27562;47.524;12.404;2023-11-21T08:59:20;5.80;99.90
41882;DHT22;27562;47.524;12.404;2023-11-21T09:01:47;5.90;99.90
41882;DHT22;27562;47.524;12.404;2023-11-21T09:04:12;5.90;99.90
41882;DHT22;27562;47.524;12.404;2023-11-21T09:06:39;6.00;99.90
41882;DHT22;27562;47.524;12.404;2023-11-21T09:09:05;6.00;99.90
41882;DHT22;27562;47.524;12.404;2023-11-21T09:11:32;6.00;99.90
41882;DHT22;27562;47.524;12.404;2023-11-21T09:14:00;6.00;99.90
41882;DHT22;27562;47.524;12.404;2023-11-21T09:16:26;6.10;99.90
41882;DHT22;27562;47.524;12.404;2023-11-21T09:18:51;6.10;99.90
41882;DHT22;27562;47.524;12.404;2023-11-21T09:21:17;6.10;99.90
41882;DHT22;27562;47.524;12.404;2023-11-21T09:23:44;6.10;99.90
41882;DHT22;27562;47.524;12.404;2023-11-21T09:26:10;6.10;99.90
41882;DHT22;27562;47.524;12.404;2023-11-21T09:28:36;6.00;99.90
41882;DHT22;27562;47.524;12.404;2023-11-21T09:31:04;6.00;99.90
41882;DHT22;27562;47.524;12.404;2023-11-21T09:33:30;6.00;99.90
41882;DHT22;27562;47.524;12.404;2023-11-21T09:35:57;6.00;99.90
41882;DHT22;27562;47.524;12.404;2023-11-21T09:38:23;6.00;99.90
41882;DHT22;27562;47.524;12.404;2023-11-21T09:40:49;6.00;99.90
41882;DHT22;27562;47.524;12.404;2023-11-21T09:43:18;6.00;99.90
41882;DHT22;27562;47.524;12.404;2023-11-21T09:45:50;6.00;99.90
41882;DHT22;27562;47.524;12.404;2023-11-21T09:48:20;6.00;99.90
41882;DHT22;27562;47.524;12.404;2023-11-21T09:50:47;6.00;99.90
41882;DHT22;27562;47.524;12.404;2023-11-21T09:53:19;6.00;99.90
41882;DHT22;27562;47.524;12.404;2023-11-21T09:55:51;6.00;99.90
41882;DHT22;27562;47.524;12.404;2023-11-21T09:58:18;6.00;99.90
41882;DHT22;27562;47.524;12.404;2023-11-21T10:00:47;6.00;99.90
41882;DHT22;27562;47.524;12.404;2023-11-21T10:03:13;6.10;99.90
41882;DHT22;27562;47.524;12.404;2023-11-21T10:05:40;6.10;99.90
41882;DHT22;27562;47.524;12.404;2023-11-21T10:08:11;6.10;99.90
41882;DHT22;27562;47.524;12.404;2023-11-21T10:10:38;6.10;99.90
41882;DHT22;27562;47.524;12.404;2023-11-21T10:13:11;6.10;99.90
41882;DHT22;27562;47.524;12.404;2023-11-21T10:15:38;6.10;99.90
41882;DHT22;27562;47.524;12.404;2023-11-21T10:18:04;6.10;99.90
41882;DHT22;27562;47.524;12.404;2023-11-21T10:20:32;6.20;99.90
41882;DHT22;27562;47.524;12.404;2023-11-21T10:23:03;6.20;99.90
41882;DHT22;27562;47.524;12.404;2023-11-21T10:25:30;6.20;99.90
41882;DHT22;27562;47.524;12.404;2023-11-21T10:28:02;6.20;99.90
41882;DHT22;27562;47.524;12.404;2023-11-21T10:30:37;6.20;99.90
41882;DHT22;27562;47.524;12.404;2023-11-21T10:33:04;6.30;99.90
41882;DHT22;27562;47.524;12.404;2023-11-21T10:35:45;6.20;99.90
41882;DHT22;27562;47.524;12.404;2023-11-21T10:38:13;6.20;99.90
41882;DHT22;27562;47.524;12.404;2023-11-21T10:40:40;6.20;99.90
41882;DHT22;27562;47.524;12.404;2023-11-21T10:43:10;6.30;99.90
41882;DHT22;27562;47.524;12.404;2023-11-21T10:45:37;6.30;99.90
41882;DHT22;27562;47.524;12.404;2023-11-21T10:48:15;6.30;99.90
41882;DHT22;27562;47.524;12.404;2023-11-21T10:50:42;6.30;99.90
41882;DHT22;27562;47.524;12.404;2023-11-21T10:53:08;6.20;99.90
41882;DHT22;27562;47.524;12.404;2023-11-21T10:55:35;6.20;99.90
41882;DHT22;27562;47.524;12.404;2023-11-21T10:58:02;6.20;99.90
41882;DHT22;27562;47.524;12.404;2023-11-21T11:00:30;6.30;99.90
41882;DHT22;27562;47.524;12.404;2023-11-21T11:02:56;6.30;99.90
41882;DHT22;27562;47.524;12.404;2023-11-21T11:05:27;6.30;99.90
41882;DHT22;27562;47.524;12.404;2023-11-21T11:08:08;6.30;99.90
41882;DHT22;27562;47.524;12.404;2023-11-21T11:10:37;6.30;99.90
41882;DHT22;27562;47.524;12.404;2023-11-21T11:13:04;6.30;99.90
41882;DHT22;27562;47.524;12.404;2023-11-21T11:15:32;6.30;99.90
41882;DHT22;27562;47.524;12.404;2023-11-21T11:17:59;6.30;99.90
41882;DHT22;27562;47.524;12.404;2023-11-21T11:20:33;6.30;99.90
41882;DHT22;27562;47.524;12.404;2023-11-21T11:28:21;6.30;99.90
41882;DHT22;27562;47.524;12.404;2023-11-21T11:31:11;6.30;99.90
41882;DHT22;27562;47.524;12.404;2023-11-21T11:36:12;6.30;99.90
41882;DHT22;27562;47.524;12.404;2023-11-21T11:38:39;6.40;99.90
41882;DHT22;27562;47.524;12.404;2023-11-21T11:41:10;6.40;99.90
41882;DHT22;27562;47.524;12.404;2023-11-21T11:43:36;6.40;99.90
41882;DHT22;27562;47.524;12.404;2023-11-21T11:46:11;6.50;99.90
41882;DHT22;27562;47.524;12.404;2023-11-21T11:48:40;6.50;99.90
41882;DHT22;27562;47.524;12.404;2023-11-21T11:51:13;6.50;99.90
41882;DHT22;27562;47.524;12.404;2023-11-21T11:53:49;6.50;99.90
41882;DHT22;27562;47.524;12.404;2023-11-21T11:58:50;6.60;99.90
41882;DHT22;27562;47.524;12.404;2023-11-21T12:01:19;6.60;99.90
41882;DHT22;27562;47.524;12.404;2023-11-21T12:06:43;6.60;99.90
41882;DHT22;27562;47.524;12.404;2023-11-21T12:09:19;6.60;99.90
41882;DHT22;27562;47.524;12.404;2023-11-21T12:11:46;6.60;99.90
41882;DHT22;27562;47.524;12.404;2023-11-21T12:14:13;6.60;99.90
41882;DHT22;27562;47.524;12.404;2023-11-21T12:16:39;6.70;99.90
41882;DHT22;27562;47.524;12.404;2023-11-21T12:19:05;6.70;99.90
41882;DHT22;27562;47.524;12.404;2023-11-21T12:21:31;6.70;99.90
41882;DHT22;27562;47.524;12.404;2023-11-21T12:23:58;6.70;99.90
41882;DHT22;27562;47.524;12.404;2023-11-21T12:26:24;6.70;99.90
41882;DHT22;27562;47.524;12.404;2023-11-21T12:28:53;6.80;99.90
41882;DHT22;27562;47.524;12.404;2023-11-21T12:31:25;6.80;99.90
41882;DHT22;27562;47.524;12.404;2023-11-21T12:33:50;6.70;99.90
41882;DHT22;27562;47.524;12.404;2023-11-21T12:36:16;6.80;99.90
41882;DHT22;27562;47.524;12.404;2023-11-21T12:38:42;6.80;99.90
41882;DHT22;27562;47.524;12.404;2023-11-21T12:41:11;6.80;99.90
41882;DHT22;27562;47.524;12.404;2023-11-21T12:43:36;6.80;99.90
41882;DHT22;27562;47.524;12.404;2023-11-21T12:46:08;6.80;99.90
41882;DHT22;27562;47.524;12.404;2023-11-21T12:48:41;6.70;99.90
41882;DHT22;27562;47.524;12.404;2023-11-21T12:51:11;6.80;99.90
41882;DHT22;27562;47.524;12.404;2023-11-21T12:53:38;6.80;99.90
41882;DHT22;27562;47.524;12.404;2023-11-21T12:56:22;6.80;99.90
41882;DHT22;27562;47.524;12.404;2023-11-21T12:58:53;6.80;99.90
41882;DHT22;27562;47.524;12.404;2023-11-21T13:01:19;6.80;99.90
41882;DHT22;27562;47.524;12.404;2023-11-21T13:03:48;6.80;99.90
41882;DHT22;27562;47.524;12.404;2023-11-21T13:06:17;6.90;99.90
41882;DHT22;27562;47.524;12.404;2023-11-21T13:08:47;6.80;99.90
41882;DHT22;27562;47.524;12.404;2023-11-21T13:11:13;6.80;99.90
41882;DHT22;27562;47.524;12.404;2023-11-21T13:13:41;6.80;99.90
41882;DHT22;27562;47.524;12.404;2023-11-21T13:16:09;6.90;99.90
41882;DHT22;27562;47.524;12.404;2023-11-21T13:18:35;6.90;99.90
41882;DHT22;27562;47.524;12.404;2023-11-21T13:21:03;6.90;99.90
41882;DHT22;27562;47.524;12.404;2023-11-21T13:23:40;6.90;99.90
41882;DHT22;27562;47.524;12.404;2023-11-21T13:26:07;6.90;99.90
41882;DHT22;27562;47.524;12.404;2023-11-21T13:28:35;6.90;99.90
41882;DHT22;27562;47.524;12.404;2023-11-21T13:31:02;6.90;99.90
41882;DHT22;27562;47.524;12.404;2023-11-21T13:33:37;7.00;99.90
41882;DHT22;27562;47.524;12.404;2023-11-21T13:36:05;6.90;99.90
41882;DHT22;27562;47.524;12.404;2023-11-21T13:38:33;6.90;99.90
41882;DHT22;27562;47.524;12.404;2023-11-21T13:41:01;6.90;99.90
41882;DHT22;27562;47.524;12.404;2023-11-21T13:43:27;6.90;99.90
41882;DHT22;27562;47.524;12.404;2023-11-21T13:45:54;6.90;99.90
41882;DHT22;27562;47.524;12.404;2023-11-21T13:48:29;6.90;99.90
41882;DHT22;27562;47.524;12.404;2023-11-21T13:51:06;6.90;99.90
41882;DHT22;27562;47.524;12.404;2023-11-21T13:53:47;6.90;99.90
41882;DHT22;27562;47.524;12.404;2023-11-21T13:56:16;6.90;99.90
41882;DHT22;27562;47.524;12.404;2023-11-21T13:58:50;6.90;99.90
41882;DHT22;27562;47.524;12.404;2023-11-21T14:01:19;7.00;99.90
41882;DHT22;27562;47.524;12.404;2023-11-21T14:03:58;7.00;99.90
41882;DHT22;27562;47.524;12.404;2023-11-21T14:06:38;7.00;99.90
41882;DHT22;27562;47.524;12.404;2023-11-21T14:09:22;7.00;99.90
41882;DHT22;27562;47.524;12.404;2023-11-21T14:11:51;7.00;99.90
41882;DHT22;27562;47.524;12.404;2023-11-21T14:14:19;7.00;99.90
41882;DHT22;27562;47.524;12.404;2023-11-21T14:16:44;7.00;99.90
41882;DHT22;27562;47.524;12.404;2023-11-21T14:19:10;7.00;99.90
41882;DHT22;27562;47.524;12.404;2023-11-21T14:21:45;7.00;99.90
41882;DHT22;27562;47.524;12.404;2023-11-21T14:24:14;7.00;99.90
41882;DHT22;27562;47.524;12.404;2023-11-21T14:26:43;7.00;99.90
41882;DHT22;27562;47.524;12.404;2023-11-21T14:29:11;6.90;99.90
41882;DHT22;27562;47.524;12.404;2023-11-21T14:31:40;6.90;99.90
41882;DHT22;27562;47.524;12.404;2023-11-21T14:34:07;6.90;99.90
41882;DHT22;27562;47.524;12.404;2023-11-21T14:36:36;7.00;99.90
41882;DHT22;27562;47.524;12.404;2023-11-21T14:39:05;6.90;99.90
41882;DHT22;27562;47.524;12.404;2023-11-21T14:41:35;6.90;99.90
41882;DHT22;27562;47.524;12.404;2023-11-21T14:44:02;6.90;99.90
41882;DHT22;27562;47.524;12.404;2023-11-21T14:46:29;7.00;99.90
41882;DHT22;27562;47.524;12.404;2023-11-21T14:48:55;6.90;99.90
41882;DHT22;27562;47.524;12.404;2023-11-21T14:51:41;6.90;99.90
41882;DHT22;27562;47.524;12.404;2023-11-21T14:54:25;6.90;99.90
41882;DHT22;27562;47.524;12.404;2023-11-21T14:57:09;6.90;99.90
41882;DHT22;27562;47.524;12.404;2023-11-21T14:59:46;6.90;99.90
41882;DHT22;27562;47.524;12.404;2023-11-21T15:02:14;6.90;99.90
41882;DHT22;27562;47.524;12.404;2023-11-21T15:04:42;6.90;99.90
41882;DHT22;27562;47.524;12.404;2023-11-21T15:07:08;6.80;99.90
41882;DHT22;27562;47.524;12.404;2023-11-21T15:09:34;6.80;99.90
41882;DHT22;27562;47.524;12.404;2023-11-21T15:12:00;6.80;99.90
41882;DHT22;27562;47.524;12.404;2023-11-21T15:14:47;6.80;99.90
41882;DHT22;27562;47.524;12.404;2023-11-21T15:17:16;6.70;99.90
41882;DHT22;27562;47.524;12.404;2023-11-21T15:19:56;6.70;99.90
41882;DHT22;27562;47.524;12.404;2023-11-21T15:22:22;6.70;99.90
41882;DHT22;27562;47.524;12.404;2023-11-21T15:24:48;6.70;99.90
41882;DHT22;27562;47.524;12.404;2023-11-21T15:27:15;6.60;99.90
41882;DHT22;27562;47.524;12.404;2023-11-21T15:29:42;6.50;99.90
41882;DHT22;27562;47.524;12.404;2023-11-21T15:32:09;6.50;99.90
41882;DHT22;27562;47.524;12.404;2023-11-21T15:34:35;6.40;99.90
41882;DHT22;27562;47.524;12.404;2023-11-21T15:37:02;6.40;99.90
41882;DHT22;27562;47.524;12.404;2023-11-21T15:39:28;6.30;99.90
41882;DHT22;27562;47.524;12.404;2023-11-21T15:41:56;6.20;99.90
41882;DHT22;27562;47.524;12.404;2023-11-21T15:44:23;6.20;99.90
41882;DHT22;27562;47.524;12.404;2023-11-21T15:46:50;6.10;99.90